sensor_id;sensor_type;location;lat;lon;timestamp;P1;durP1;ratioP1;P2;durP2;ratioP2
77453;SDS011;66538;53.150;18.160;2023-09-07T00:00:24;8.90;;;5.80;;
77453;SDS011;66538;53.150;18.160;2023-09-07T00:03:11;8.80;;;6.10;;
77453;SDS011;66538;53.150;18.160;2023-09-07T00:05:39;9.60;;;6.10;;
77453;SDS011;66538;53.150;18.160;2023-09-07T00:08:06;10.80;;;6.30;;
77453;SDS011;66538;53.150;18.160;2023-09-07T00:10:33;10.60;;;7.20;;
77453;SDS011;66538;53.150;18.160;2023-09-07T00:13:03;7.10;;;4.90;;
77453;SDS011;66538;53.150;18.160;2023-09-07T00:15:36;9.40;;;6.10;;
77453;SDS011;66538;53.150;18.160;2023-09-07T00:18:04;9.70;;;6.20;;
77453;SDS011;66538;53.150;18.160;2023-09-07T00:20:31;11.20;;;6.90;;
77453;SDS011;66538;53.150;18.160;2023-09-07T00:23:00;8.30;;;5.10;;
77453;SDS011;66538;53.150;18.160;2023-09-07T00:25:27;9.30;;;6.50;;
77453;SDS011;66538;53.150;18.160;2023-09-07T00:27:54;9.60;;;5.70;;
77453;SDS011;66538;53.150;18.160;2023-09-07T00:30:20;11.30;;;7.00;;
77453;SDS011;66538;53.150;18.160;2023-09-07T00:32:48;9.70;;;6.20;;
77453;SDS011;66538;53.150;18.160;2023-09-07T00:35:14;10.80;;;7.20;;
77453;SDS011;66538;53.150;18.160;2023-09-07T00:37:41;10.80;;;6.20;;
77453;SDS011;66538;53.150;18.160;2023-09-07T00:40:08;11.00;;;7.10;;
77453;SDS011;66538;53.150;18.160;2023-09-07T00:42:35;8.00;;;5.00;;
77453;SDS011;66538;53.150;18.160;2023-09-07T00:45:03;9.40;;;6.60;;
77453;SDS011;66538;53.150;18.160;2023-09-07T00:47:30;11.30;;;8.00;;
77453;SDS011;66538;53.150;18.160;2023-09-07T00:49:56;10.60;;;7.20;;
77453;SDS011;66538;53.150;18.160;2023-09-07T00:52:24;10.90;;;6.30;;
77453;SDS011;66538;53.150;18.160;2023-09-07T00:54:51;11.80;;;8.00;;
77453;SDS011;66538;53.150;18.160;2023-09-07T00:57:18;11.80;;;7.70;;
77453;SDS011;66538;53.150;18.160;2023-09-07T00:59:45;10.30;;;7.40;;
77453;SDS011;66538;53.150;18.160;2023-09-07T01:02:11;11.50;;;6.90;;
77453;SDS011;66538;53.150;18.160;2023-09-07T01:04:38;13.00;;;7.90;;
77453;SDS011;66538;53.150;18.160;2023-09-07T01:07:09;11.10;;;8.00;;
77453;SDS011;66538;53.150;18.160;2023-09-07T01:09:49;12.80;;;8.00;;
77453;SDS011;66538;53.150;18.160;2023-09-07T01:12:19;12.30;;;7.90;;
77453;SDS011;66538;53.150;18.160;2023-09-07T01:14:46;14.70;;;10.30;;
77453;SDS011;66538;53.150;18.160;2023-09-07T01:17:13;15.30;;;8.90;;
77453;SDS011;66538;53.150;18.160;2023-09-07T01:19:40;13.80;;;7.70;;
77453;SDS011;66538;53.150;18.160;2023-09-07T01:22:10;14.70;;;9.40;;
77453;SDS011;66538;53.150;18.160;2023-09-07T01:24:38;16.20;;;9.90;;
77453;SDS011;66538;53.150;18.160;2023-09-07T01:27:05;15.70;;;10.10;;
77453;SDS011;66538;53.150;18.160;2023-09-07T01:29:34;16.60;;;10.60;;
77453;SDS011;66538;53.150;18.160;2023-09-07T01:32:04;19.60;;;10.50;;
77453;SDS011;66538;53.150;18.160;2023-09-07T01:34:32;15.80;;;9.70;;
77453;SDS011;66538;53.150;18.160;2023-09-07T01:36:58;19.20;;;12.20;;
77453;SDS011;66538;53.150;18.160;2023-09-07T01:39:25;17.00;;;10.50;;
77453;SDS011;66538;53.150;18.160;2023-09-07T01:41:52;14.80;;;10.80;;
77453;SDS011;66538;53.150;18.160;2023-09-07T01:44:19;16.60;;;10.50;;
77453;SDS011;66538;53.150;18.160;2023-09-07T01:46:46;19.10;;;11.20;;
77453;SDS011;66538;53.150;18.160;2023-09-07T01:49:12;16.80;;;10.40;;
77453;SDS011;66538;53.150;18.160;2023-09-07T01:51:39;18.80;;;10.60;;
77453;SDS011;66538;53.150;18.160;2023-09-07T01:54:06;17.40;;;10.70;;
77453;SDS011;66538;53.150;18.160;2023-09-07T01:56:33;18.80;;;10.90;;
77453;SDS011;66538;53.150;18.160;2023-09-07T01:59:00;12.00;;;6.60;;
77453;SDS011;66538;53.150;18.160;2023-09-07T02:01:31;18.40;;;11.20;;
77453;SDS011;66538;53.150;18.160;2023-09-07T02:04:00;14.80;;;10.20;;
77453;SDS011;66538;53.150;18.160;2023-09-07T02:06:27;20.10;;;11.30;;
77453;SDS011;66538;53.150;18.160;2023-09-07T02:08:54;16.40;;;9.80;;
77453;SDS011;66538;53.150;18.160;2023-09-07T02:11:22;19.80;;;12.30;;
77453;SDS011;66538;53.150;18.160;2023-09-07T02:13:49;16.40;;;10.50;;
77453;SDS011;66538;53.150;18.160;2023-09-07T02:16:16;16.80;;;9.60;;
77453;SDS011;66538;53.150;18.160;2023-09-07T02:18:44;17.50;;;9.60;;
77453;SDS011;66538;53.150;18.160;2023-09-07T02:21:12;15.00;;;9.60;;
77453;SDS011;66538;53.150;18.160;2023-09-07T02:23:39;17.60;;;10.20;;
77453;SDS011;66538;53.150;18.160;2023-09-07T02:26:06;22.30;;;12.00;;
77453;SDS011;66538;53.150;18.160;2023-09-07T02:28:33;18.20;;;11.30;;
77453;SDS011;66538;53.150;18.160;2023-09-07T02:31:03;16.00;;;9.60;;
77453;SDS011;66538;53.150;18.160;2023-09-07T02:33:31;17.60;;;10.50;;
77453;SDS011;66538;53.150;18.160;2023-09-07T02:35:58;15.90;;;9.80;;
77453;SDS011;66538;53.150;18.160;2023-09-07T02:38:26;15.80;;;8.60;;
77453;SDS011;66538;53.150;18.160;2023-09-07T02:40:54;17.30;;;10.60;;
77453;SDS011;66538;53.150;18.160;2023-09-07T02:43:22;14.20;;;9.00;;
77453;SDS011;66538;53.150;18.160;2023-09-07T02:45:49;18.30;;;10.20;;
77453;SDS011;66538;53.150;18.160;2023-09-07T02:48:17;16.20;;;10.20;;
77453;SDS011;66538;53.150;18.160;2023-09-07T02:50:44;12.70;;;8.50;;
77453;SDS011;66538;53.150;18.160;2023-09-07T02:53:15;14.20;;;8.30;;
77453;SDS011;66538;53.150;18.160;2023-09-07T02:55:42;15.90;;;9.20;;
77453;SDS011;66538;53.150;18.160;2023-09-07T02:58:09;16.50;;;10.40;;
77453;SDS011;66538;53.150;18.160;2023-09-07T03:00:40;15.20;;;10.20;;
77453;SDS011;66538;53.150;18.160;2023-09-07T03:03:08;16.70;;;10.50;;
77453;SDS011;66538;53.150;18.160;2023-09-07T03:05:35;14.90;;;9.20;;
77453;SDS011;66538;53.150;18.160;2023-09-07T03:08:01;17.00;;;9.80;;
77453;SDS011;66538;53.150;18.160;2023-09-07T03:10:29;13.40;;;8.20;;
77453;SDS011;66538;53.150;18.160;2023-09-07T03:12:55;15.60;;;9.40;;
77453;SDS011;66538;53.150;18.160;2023-09-07T03:15:22;16.20;;;10.40;;
77453;SDS011;66538;53.150;18.160;2023-09-07T03:17:49;21.20;;;10.40;;
77453;SDS011;66538;53.150;18.160;2023-09-07T03:20:15;19.30;;;10.10;;
77453;SDS011;66538;53.150;18.160;2023-09-07T03:22:45;12.70;;;7.10;;
77453;SDS011;66538;53.150;18.160;2023-09-07T03:25:13;15.10;;;8.70;;
77453;SDS011;66538;53.150;18.160;2023-09-07T03:27:40;15.10;;;9.00;;
77453;SDS011;66538;53.150;18.160;2023-09-07T03:30:08;15.90;;;9.40;;
77453;SDS011;66538;53.150;18.160;2023-09-07T03:32:36;15.40;;;9.20;;
77453;SDS011;66538;53.150;18.160;2023-09-07T03:35:04;13.50;;;8.50;;
77453;SDS011;66538;53.150;18.160;2023-09-07T03:37:37;19.20;;;9.40;;
77453;SDS011;66538;53.150;18.160;2023-09-07T03:40:04;13.80;;;7.90;;
77453;SDS011;66538;53.150;18.160;2023-09-07T03:42:31;16.50;;;9.00;;
77453;SDS011;66538;53.150;18.160;2023-09-07T03:44:58;15.70;;;9.50;;
77453;SDS011;66538;53.150;18.160;2023-09-07T03:47:26;21.00;;;10.00;;
77453;SDS011;66538;53.150;18.160;2023-09-07T03:49:56;21.10;;;10.50;;
77453;SDS011;66538;53.150;18.160;2023-09-07T03:52:26;17.90;;;10.30;;
77453;SDS011;66538;53.150;18.160;2023-09-07T03:54:54;15.10;;;9.40;;
77453;SDS011;66538;53.150;18.160;2023-09-07T03:57:23;13.80;;;8.00;;
77453;SDS011;66538;53.150;18.160;2023-09-07T03:59:51;15.80;;;9.10;;
77453;SDS011;66538;53.150;18.160;2023-09-07T04:02:18;13.20;;;7.10;;
77453;SDS011;66538;53.150;18.160;2023-09-07T04:04:48;16.40;;;8.80;;
77453;SDS011;66538;53.150;18.160;2023-09-07T04:07:16;12.20;;;6.30;;
77453;SDS011;66538;53.150;18.160;2023-09-07T04:09:46;13.00;;;7.60;;
77453;SDS011;66538;53.150;18.160;2023-09-07T04:12:13;14.60;;;8.30;;
77453;SDS011;66538;53.150;18.160;2023-09-07T04:14:39;21.40;;;9.90;;
77453;SDS011;66538;53.150;18.160;2023-09-07T04:19:34;15.00;;;9.10;;
77453;SDS011;66538;53.150;18.160;2023-09-07T04:22:01;16.70;;;8.90;;
77453;SDS011;66538;53.150;18.160;2023-09-07T04:24:28;14.40;;;8.70;;
77453;SDS011;66538;53.150;18.160;2023-09-07T04:26:57;14.50;;;8.40;;
77453;SDS011;66538;53.150;18.160;2023-09-07T04:29:28;15.70;;;8.20;;
77453;SDS011;66538;53.150;18.160;2023-09-07T04:31:55;15.00;;;8.20;;
77453;SDS011;66538;53.150;18.160;2023-09-07T04:34:22;16.80;;;8.20;;
77453;SDS011;66538;53.150;18.160;2023-09-07T04:36:49;15.50;;;8.80;;
77453;SDS011;66538;53.150;18.160;2023-09-07T04:39:16;16.00;;;8.50;;
77453;SDS011;66538;53.150;18.160;2023-09-07T04:41:43;15.50;;;9.10;;
77453;SDS011;66538;53.150;18.160;2023-09-07T04:44:10;14.00;;;8.80;;
77453;SDS011;66538;53.150;18.160;2023-09-07T04:46:36;14.40;;;8.10;;
77453;SDS011;66538;53.150;18.160;2023-09-07T04:49:03;17.60;;;9.30;;
77453;SDS011;66538;53.150;18.160;2023-09-07T04:51:30;17.10;;;8.90;;
77453;SDS011;66538;53.150;18.160;2023-09-07T04:53:56;13.00;;;10.10;;
77453;SDS011;66538;53.150;18.160;2023-09-07T04:56:23;16.90;;;9.60;;
77453;SDS011;66538;53.150;18.160;2023-09-07T04:58:52;14.40;;;8.90;;
77453;SDS011;66538;53.150;18.160;2023-09-07T05:01:18;14.70;;;8.30;;
77453;SDS011;66538;53.150;18.160;2023-09-07T05:03:45;15.70;;;8.90;;
77453;SDS011;66538;53.150;18.160;2023-09-07T05:06:12;12.70;;;7.60;;
77453;SDS011;66538;53.150;18.160;2023-09-07T05:08:40;13.60;;;7.80;;
77453;SDS011;66538;53.150;18.160;2023-09-07T05:11:06;15.30;;;9.40;;
77453;SDS011;66538;53.150;18.160;2023-09-07T05:13:33;12.60;;;7.80;;
77453;SDS011;66538;53.150;18.160;2023-09-07T05:16:01;14.60;;;8.80;;
77453;SDS011;66538;53.150;18.160;2023-09-07T05:18:28;15.40;;;9.00;;
77453;SDS011;66538;53.150;18.160;2023-09-07T05:20:55;15.00;;;8.40;;
77453;SDS011;66538;53.150;18.160;2023-09-07T05:23:21;15.00;;;9.00;;
77453;SDS011;66538;53.150;18.160;2023-09-07T05:25:49;15.50;;;9.00;;
77453;SDS011;66538;53.150;18.160;2023-09-07T05:28:21;17.60;;;9.10;;
77453;SDS011;66538;53.150;18.160;2023-09-07T05:30:49;17.00;;;8.60;;
77453;SDS011;66538;53.150;18.160;2023-09-07T05:33:16;12.80;;;7.90;;
77453;SDS011;66538;53.150;18.160;2023-09-07T05:35:45;11.90;;;7.20;;
77453;SDS011;66538;53.150;18.160;2023-09-07T05:38:12;9.60;;;5.70;;
77453;SDS011;66538;53.150;18.160;2023-09-07T05:40:43;12.30;;;7.50;;
77453;SDS011;66538;53.150;18.160;2023-09-07T05:43:11;11.80;;;7.00;;
77453;SDS011;66538;53.150;18.160;2023-09-07T05:45:39;12.10;;;7.60;;
77453;SDS011;66538;53.150;18.160;2023-09-07T05:48:07;11.80;;;6.90;;
77453;SDS011;66538;53.150;18.160;2023-09-07T05:50:36;9.00;;;5.80;;
77453;SDS011;66538;53.150;18.160;2023-09-07T05:53:04;12.70;;;7.20;;
77453;SDS011;66538;53.150;18.160;2023-09-07T05:55:32;11.80;;;7.60;;
77453;SDS011;66538;53.150;18.160;2023-09-07T05:58:03;9.50;;;6.60;;
77453;SDS011;66538;53.150;18.160;2023-09-07T06:00:32;10.20;;;7.50;;
77453;SDS011;66538;53.150;18.160;2023-09-07T06:03:00;19.80;;;7.70;;
77453;SDS011;66538;53.150;18.160;2023-09-07T06:05:27;11.30;;;7.00;;
77453;SDS011;66538;53.150;18.160;2023-09-07T06:07:54;11.30;;;7.10;;
77453;SDS011;66538;53.150;18.160;2023-09-07T06:10:20;10.80;;;6.60;;
77453;SDS011;66538;53.150;18.160;2023-09-07T06:12:48;10.60;;;7.50;;
77453;SDS011;66538;53.150;18.160;2023-09-07T06:15:15;7.90;;;5.10;;
77453;SDS011;66538;53.150;18.160;2023-09-07T06:17:42;9.00;;;5.80;;
77453;SDS011;66538;53.150;18.160;2023-09-07T06:20:09;8.20;;;5.80;;
77453;SDS011;66538;53.150;18.160;2023-09-07T06:22:36;10.60;;;6.70;;
77453;SDS011;66538;53.150;18.160;2023-09-07T06:25:03;8.20;;;5.70;;
77453;SDS011;66538;53.150;18.160;2023-09-07T06:27:30;10.30;;;6.80;;
77453;SDS011;66538;53.150;18.160;2023-09-07T06:29:56;9.20;;;5.90;;
77453;SDS011;66538;53.150;18.160;2023-09-07T06:32:23;8.80;;;6.10;;
77453;SDS011;66538;53.150;18.160;2023-09-07T06:34:50;9.90;;;6.10;;
77453;SDS011;66538;53.150;18.160;2023-09-07T06:37:17;10.10;;;6.20;;
77453;SDS011;66538;53.150;18.160;2023-09-07T06:39:44;9.40;;;6.50;;
77453;SDS011;66538;53.150;18.160;2023-09-07T06:42:11;9.40;;;6.10;;
77453;SDS011;66538;53.150;18.160;2023-09-07T06:44:44;10.60;;;6.50;;
77453;SDS011;66538;53.150;18.160;2023-09-07T06:47:12;9.10;;;6.20;;
77453;SDS011;66538;53.150;18.160;2023-09-07T06:49:38;10.00;;;7.00;;
77453;SDS011;66538;53.150;18.160;2023-09-07T06:52:05;9.30;;;6.50;;
77453;SDS011;66538;53.150;18.160;2023-09-07T06:54:33;9.70;;;6.80;;
77453;SDS011;66538;53.150;18.160;2023-09-07T06:57:00;9.30;;;6.40;;
77453;SDS011;66538;53.150;18.160;2023-09-07T06:59:26;8.60;;;5.50;;
77453;SDS011;66538;53.150;18.160;2023-09-07T07:01:53;9.30;;;5.60;;
77453;SDS011;66538;53.150;18.160;2023-09-07T07:04:20;11.30;;;7.80;;
77453;SDS011;66538;53.150;18.160;2023-09-07T07:06:47;8.50;;;6.40;;
77453;SDS011;66538;53.150;18.160;2023-09-07T07:09:13;9.00;;;6.70;;
77453;SDS011;66538;53.150;18.160;2023-09-07T07:11:40;9.10;;;6.60;;
77453;SDS011;66538;53.150;18.160;2023-09-07T07:14:09;7.70;;;5.30;;
77453;SDS011;66538;53.150;18.160;2023-09-07T07:16:38;10.20;;;6.60;;
77453;SDS011;66538;53.150;18.160;2023-09-07T07:19:05;11.10;;;7.40;;
77453;SDS011;66538;53.150;18.160;2023-09-07T07:21:31;8.60;;;6.20;;
77453;SDS011;66538;53.150;18.160;2023-09-07T07:23:58;8.70;;;6.50;;
77453;SDS011;66538;53.150;18.160;2023-09-07T07:26:25;9.10;;;6.70;;
77453;SDS011;66538;53.150;18.160;2023-09-07T07:28:52;8.30;;;5.70;;
77453;SDS011;66538;53.150;18.160;2023-09-07T07:31:19;9.00;;;6.50;;
77453;SDS011;66538;53.150;18.160;2023-09-07T07:33:47;7.60;;;5.50;;
77453;SDS011;66538;53.150;18.160;2023-09-07T07:36:15;7.90;;;5.50;;
77453;SDS011;66538;53.150;18.160;2023-09-07T07:38:41;7.20;;;5.50;;
77453;SDS011;66538;53.150;18.160;2023-09-07T07:41:08;8.90;;;6.70;;
77453;SDS011;66538;53.150;18.160;2023-09-07T07:43:35;8.20;;;6.00;;
77453;SDS011;66538;53.150;18.160;2023-09-07T07:46:01;7.70;;;6.10;;
77453;SDS011;66538;53.150;18.160;2023-09-07T07:48:29;7.70;;;5.70;;
77453;SDS011;66538;53.150;18.160;2023-09-07T07:50:56;8.80;;;6.30;;
77453;SDS011;66538;53.150;18.160;2023-09-07T07:53:23;10.00;;;6.90;;
77453;SDS011;66538;53.150;18.160;2023-09-07T07:55:50;7.70;;;5.90;;
77453;SDS011;66538;53.150;18.160;2023-09-07T07:58:19;12.70;;;6.20;;
77453;SDS011;66538;53.150;18.160;2023-09-07T08:00:46;10.20;;;6.30;;
77453;SDS011;66538;53.150;18.160;2023-09-07T08:03:16;8.70;;;6.30;;
77453;SDS011;66538;53.150;18.160;2023-09-07T08:05:44;10.30;;;7.00;;
77453;SDS011;66538;53.150;18.160;2023-09-07T08:08:11;10.20;;;7.30;;
77453;SDS011;66538;53.150;18.160;2023-09-07T08:10:38;7.90;;;6.20;;
77453;SDS011;66538;53.150;18.160;2023-09-07T08:13:07;7.70;;;5.60;;
77453;SDS011;66538;53.150;18.160;2023-09-07T08:15:34;10.30;;;6.70;;
77453;SDS011;66538;53.150;18.160;2023-09-07T08:18:01;7.50;;;5.30;;
77453;SDS011;66538;53.150;18.160;2023-09-07T08:20:27;8.40;;;5.80;;
77453;SDS011;66538;53.150;18.160;2023-09-07T08:22:56;8.70;;;6.30;;
77453;SDS011;66538;53.150;18.160;2023-09-07T08:25:24;8.50;;;6.80;;
77453;SDS011;66538;53.150;18.160;2023-09-07T08:27:52;9.30;;;6.60;;
77453;SDS011;66538;53.150;18.160;2023-09-07T08:30:22;8.80;;;6.60;;
77453;SDS011;66538;53.150;18.160;2023-09-07T08:32:51;9.10;;;6.80;;
77453;SDS011;66538;53.150;18.160;2023-09-07T08:35:18;9.40;;;6.60;;
77453;SDS011;66538;53.150;18.160;2023-09-07T08:37:45;8.80;;;6.50;;
77453;SDS011;66538;53.150;18.160;2023-09-07T08:40:12;8.50;;;6.50;;
77453;SDS011;66538;53.150;18.160;2023-09-07T08:42:38;8.50;;;6.80;;
77453;SDS011;66538;53.150;18.160;2023-09-07T08:45:07;9.30;;;5.70;;
77453;SDS011;66538;53.150;18.160;2023-09-07T08:47:36;8.70;;;6.60;;
77453;SDS011;66538;53.150;18.160;2023-09-07T08:50:06;7.40;;;5.80;;
77453;SDS011;66538;53.150;18.160;2023-09-07T08:52:35;8.40;;;5.90;;
77453;SDS011;66538;53.150;18.160;2023-09-07T08:55:02;7.70;;;6.00;;
77453;SDS011;66538;53.150;18.160;2023-09-07T08:57:32;8.10;;;5.90;;
77453;SDS011;66538;53.150;18.160;2023-09-07T08:59:59;7.60;;;5.50;;
77453;SDS011;66538;53.150;18.160;2023-09-07T09:02:26;8.30;;;6.60;;
77453;SDS011;66538;53.150;18.160;2023-09-07T09:04:52;9.80;;;6.10;;
77453;SDS011;66538;53.150;18.160;2023-09-07T09:07:19;8.30;;;6.60;;
77453;SDS011;66538;53.150;18.160;2023-09-07T09:09:47;8.30;;;6.40;;
77453;SDS011;66538;53.150;18.160;2023-09-07T09:12:14;9.90;;;6.80;;
77453;SDS011;66538;53.150;18.160;2023-09-07T09:14:43;6.40;;;5.00;;
77453;SDS011;66538;53.150;18.160;2023-09-07T09:17:14;7.50;;;5.60;;
77453;SDS011;66538;53.150;18.160;2023-09-07T09:19:41;8.50;;;6.70;;
77453;SDS011;66538;53.150;18.160;2023-09-07T09:22:09;8.20;;;5.90;;
77453;SDS011;66538;53.150;18.160;2023-09-07T09:24:38;7.90;;;5.40;;
77453;SDS011;66538;53.150;18.160;2023-09-07T09:27:04;9.00;;;6.40;;
77453;SDS011;66538;53.150;18.160;2023-09-07T09:29:34;8.70;;;5.70;;
77453;SDS011;66538;53.150;18.160;2023-09-07T09:32:05;9.10;;;6.10;;
77453;SDS011;66538;53.150;18.160;2023-09-07T09:34:33;6.90;;;5.20;;
77453;SDS011;66538;53.150;18.160;2023-09-07T09:39:29;7.40;;;5.30;;
77453;SDS011;66538;53.150;18.160;2023-09-07T09:41:56;8.40;;;5.20;;
77453;SDS011;66538;53.150;18.160;2023-09-07T09:44:23;7.70;;;5.50;;
77453;SDS011;66538;53.150;18.160;2023-09-07T09:46:53;7.60;;;5.30;;
77453;SDS011;66538;53.150;18.160;2023-09-07T09:49:23;8.40;;;5.70;;
77453;SDS011;66538;53.150;18.160;2023-09-07T09:51:50;7.50;;;5.20;;
77453;SDS011;66538;53.150;18.160;2023-09-07T09:54:20;7.90;;;5.70;;
77453;SDS011;66538;53.150;18.160;2023-09-07T09:56:48;7.40;;;5.70;;
77453;SDS011;66538;53.150;18.160;2023-09-07T09:59:15;7.30;;;5.00;;
77453;SDS011;66538;53.150;18.160;2023-09-07T10:01:46;7.00;;;5.60;;
77453;SDS011;66538;53.150;18.160;2023-09-07T10:04:15;8.10;;;5.80;;
77453;SDS011;66538;53.150;18.160;2023-09-07T10:06:50;6.60;;;5.20;;
77453;SDS011;66538;53.150;18.160;2023-09-07T10:09:20;7.30;;;5.40;;
77453;SDS011;66538;53.150;18.160;2023-09-07T10:11:53;7.50;;;5.10;;
77453;SDS011;66538;53.150;18.160;2023-09-07T10:14:20;8.30;;;6.30;;
77453;SDS011;66538;53.150;18.160;2023-09-07T10:16:48;9.50;;;5.50;;
77453;SDS011;66538;53.150;18.160;2023-09-07T10:19:18;9.50;;;5.90;;
77453;SDS011;66538;53.150;18.160;2023-09-07T10:21:47;6.80;;;5.00;;
77453;SDS011;66538;53.150;18.160;2023-09-07T10:24:30;6.90;;;4.90;;
77453;SDS011;66538;53.150;18.160;2023-09-07T10:27:03;8.20;;;5.70;;
77453;SDS011;66538;53.150;18.160;2023-09-07T10:29:40;7.70;;;5.20;;
77453;SDS011;66538;53.150;18.160;2023-09-07T10:32:08;8.20;;;5.40;;
77453;SDS011;66538;53.150;18.160;2023-09-07T10:34:39;8.10;;;5.40;;
77453;SDS011;66538;53.150;18.160;2023-09-07T10:37:10;8.20;;;5.60;;
77453;SDS011;66538;53.150;18.160;2023-09-07T10:39:40;7.10;;;4.90;;
77453;SDS011;66538;53.150;18.160;2023-09-07T10:42:22;6.70;;;4.40;;
77453;SDS011;66538;53.150;18.160;2023-09-07T10:44:53;7.40;;;5.50;;
77453;SDS011;66538;53.150;18.160;2023-09-07T10:47:19;6.50;;;5.00;;
77453;SDS011;66538;53.150;18.160;2023-09-07T10:49:46;6.90;;;4.90;;
77453;SDS011;66538;53.150;18.160;2023-09-07T10:52:13;8.30;;;5.00;;
77453;SDS011;66538;53.150;18.160;2023-09-07T10:54:40;6.20;;;4.80;;
77453;SDS011;66538;53.150;18.160;2023-09-07T10:57:10;6.60;;;4.80;;
77453;SDS011;66538;53.150;18.160;2023-09-07T10:59:48;6.10;;;5.20;;
77453;SDS011;66538;53.150;18.160;2023-09-07T11:02:15;5.90;;;4.60;;
77453;SDS011;66538;53.150;18.160;2023-09-07T11:04:42;5.70;;;4.40;;
77453;SDS011;66538;53.150;18.160;2023-09-07T11:07:09;8.30;;;5.20;;
77453;SDS011;66538;53.150;18.160;2023-09-07T11:09:42;5.90;;;4.70;;
77453;SDS011;66538;53.150;18.160;2023-09-07T11:12:13;7.70;;;4.10;;
77453;SDS011;66538;53.150;18.160;2023-09-07T11:14:42;8.10;;;4.20;;
77453;SDS011;66538;53.150;18.160;2023-09-07T11:17:08;6.50;;;4.10;;
77453;SDS011;66538;53.150;18.160;2023-09-07T11:19:35;6.20;;;4.10;;
77453;SDS011;66538;53.150;18.160;2023-09-07T11:22:02;13.10;;;4.40;;
77453;SDS011;66538;53.150;18.160;2023-09-07T11:24:31;7.70;;;4.00;;
77453;SDS011;66538;53.150;18.160;2023-09-07T11:26:58;5.90;;;3.70;;
77453;SDS011;66538;53.150;18.160;2023-09-07T11:29:25;5.70;;;4.20;;
77453;SDS011;66538;53.150;18.160;2023-09-07T11:31:52;6.60;;;4.00;;
77453;SDS011;66538;53.150;18.160;2023-09-07T11:34:18;4.80;;;3.50;;
77453;SDS011;66538;53.150;18.160;2023-09-07T11:36:45;5.40;;;4.10;;
77453;SDS011;66538;53.150;18.160;2023-09-07T11:39:13;8.30;;;4.10;;
77453;SDS011;66538;53.150;18.160;2023-09-07T11:41:41;5.60;;;3.70;;
77453;SDS011;66538;53.150;18.160;2023-09-07T11:44:08;5.40;;;3.70;;
77453;SDS011;66538;53.150;18.160;2023-09-07T11:46:35;7.40;;;4.20;;
77453;SDS011;66538;53.150;18.160;2023-09-07T11:49:03;5.50;;;3.90;;
77453;SDS011;66538;53.150;18.160;2023-09-07T11:51:31;6.00;;;4.00;;
77453;SDS011;66538;53.150;18.160;2023-09-07T11:53:58;5.90;;;4.10;;
77453;SDS011;66538;53.150;18.160;2023-09-07T11:56:25;5.70;;;4.00;;
77453;SDS011;66538;53.150;18.160;2023-09-07T11:58:53;12.00;;;4.40;;
77453;SDS011;66538;53.150;18.160;2023-09-07T12:01:21;6.50;;;3.70;;
77453;SDS011;66538;53.150;18.160;2023-09-07T12:03:48;5.00;;;3.40;;
77453;SDS011;66538;53.150;18.160;2023-09-07T12:06:15;4.60;;;3.70;;
77453;SDS011;66538;53.150;18.160;2023-09-07T12:08:42;7.00;;;3.90;;
77453;SDS011;66538;53.150;18.160;2023-09-07T12:11:25;5.80;;;3.60;;
77453;SDS011;66538;53.150;18.160;2023-09-07T12:13:51;6.00;;;3.60;;
77453;SDS011;66538;53.150;18.160;2023-09-07T12:16:18;5.90;;;3.70;;
77453;SDS011;66538;53.150;18.160;2023-09-07T12:18:45;6.10;;;3.40;;
77453;SDS011;66538;53.150;18.160;2023-09-07T12:21:11;6.00;;;2.90;;
77453;SDS011;66538;53.150;18.160;2023-09-07T12:23:38;5.50;;;3.20;;
77453;SDS011;66538;53.150;18.160;2023-09-07T12:26:04;7.60;;;3.30;;
77453;SDS011;66538;53.150;18.160;2023-09-07T12:28:32;5.50;;;3.70;;
77453;SDS011;66538;53.150;18.160;2023-09-07T12:30:58;5.50;;;3.70;;
77453;SDS011;66538;53.150;18.160;2023-09-07T12:33:25;4.90;;;3.10;;
77453;SDS011;66538;53.150;18.160;2023-09-07T12:35:52;5.50;;;3.30;;
77453;SDS011;66538;53.150;18.160;2023-09-07T12:38:18;5.50;;;3.20;;
77453;SDS011;66538;53.150;18.160;2023-09-07T12:40:47;4.40;;;2.90;;
77453;SDS011;66538;53.150;18.160;2023-09-07T12:43:14;4.60;;;2.90;;
77453;SDS011;66538;53.150;18.160;2023-09-07T12:45:40;4.40;;;2.60;;
77453;SDS011;66538;53.150;18.160;2023-09-07T12:48:08;10.00;;;3.00;;
77453;SDS011;66538;53.150;18.160;2023-09-07T12:50:34;5.90;;;3.00;;
77453;SDS011;66538;53.150;18.160;2023-09-07T12:53:01;4.10;;;2.90;;
77453;SDS011;66538;53.150;18.160;2023-09-07T12:55:27;21.00;;;3.30;;
77453;SDS011;66538;53.150;18.160;2023-09-07T12:57:56;7.80;;;2.80;;
77453;SDS011;66538;53.150;18.160;2023-09-07T13:00:22;4.50;;;2.70;;
77453;SDS011;66538;53.150;18.160;2023-09-07T13:02:49;4.20;;;2.70;;
77453;SDS011;66538;53.150;18.160;2023-09-07T13:05:16;9.50;;;2.60;;
77453;SDS011;66538;53.150;18.160;2023-09-07T13:07:42;4.80;;;2.70;;
77453;SDS011;66538;53.150;18.160;2023-09-07T13:10:10;5.40;;;2.60;;
77453;SDS011;66538;53.150;18.160;2023-09-07T13:12:37;3.90;;;2.30;;
77453;SDS011;66538;53.150;18.160;2023-09-07T13:15:04;5.70;;;2.70;;
77453;SDS011;66538;53.150;18.160;2023-09-07T13:17:31;3.80;;;2.40;;
77453;SDS011;66538;53.150;18.160;2023-09-07T13:19:58;3.50;;;2.30;;
77453;SDS011;66538;53.150;18.160;2023-09-07T13:22:25;4.40;;;2.60;;
77453;SDS011;66538;53.150;18.160;2023-09-07T13:24:51;4.00;;;2.20;;
77453;SDS011;66538;53.150;18.160;2023-09-07T13:29:45;5.90;;;2.90;;
77453;SDS011;66538;53.150;18.160;2023-09-07T13:32:11;5.20;;;2.70;;
77453;SDS011;66538;53.150;18.160;2023-09-07T13:34:41;6.90;;;2.60;;
77453;SDS011;66538;53.150;18.160;2023-09-07T13:37:07;4.70;;;2.30;;
77453;SDS011;66538;53.150;18.160;2023-09-07T13:39:34;3.90;;;2.20;;
77453;SDS011;66538;53.150;18.160;2023-09-07T13:42:00;4.40;;;2.20;;
77453;SDS011;66538;53.150;18.160;2023-09-07T13:44:27;3.80;;;2.20;;
77453;SDS011;66538;53.150;18.160;2023-09-07T13:46:54;5.40;;;2.60;;
77453;SDS011;66538;53.150;18.160;2023-09-07T13:49:21;4.00;;;2.50;;
77453;SDS011;66538;53.150;18.160;2023-09-07T13:51:47;3.90;;;2.30;;
